Time;durP1;ratioP1;P1;durP2;ratioP2;P2;SDS_P1;SDS_P2;PMS_P1;PMS_P2;Temp;Humidity;BMP_temperature;BMP_pressure;BME280_temperature;BME280_humidity;BME280_pressure;Samples;Min_cycle;Max_cycle;Signal;HPM_P1;HPM_P2
2023/08/23 00:00:37;;;;;;;8.70;7.97;;;;;;;28.98;49.91;99553.94;5051623;28;20703;-66
2023/08/23 00:03:04;;;;;;;8.83;8.00;;;;;;;29.04;49.84;99560.91;5051085;28;20192;-65
2023/08/23 00:05:30;;;;;;;8.53;7.70;;;;;;;29.06;50.59;99558.66;5051707;28;20193;-65
2023/08/23 00:07:57;;;;;;;10.97;8.13;;;;;;;29.06;51.69;99561.41;5050930;28;20192;-65
2023/08/23 00:10:24;;;;;;;9.13;8.30;;;;;;;29.06;51.35;99564.94;5051662;28;20200;-66
2023/08/23 00:12:53;;;;;;;8.87;8.07;;;;;;;29.06;51.32;99564.94;5051523;28;20189;-66
2023/08/23 00:15:19;;;;;;;8.23;7.73;;;;;;;29.01;51.32;99567.00;5051832;28;20251;-66
2023/08/23 00:17:47;;;;;;;9.50;8.03;;;;;;;28.99;50.96;99569.25;5051073;28;20252;-66
2023/08/23 00:20:14;;;;;;;9.53;8.43;;;;;;;28.95;50.75;99562.78;5051740;28;20220;-66
2023/08/23 00:22:41;;;;;;;8.03;7.40;;;;;;;28.91;50.29;99567.25;5051361;28;20569;-66
2023/08/23 00:25:08;;;;;;;9.77;8.63;;;;;;;28.90;49.84;99565.63;5051770;28;20192;-66
2023/08/23 00:27:35;;;;;;;9.03;7.30;;;;;;;28.83;51.45;99563.34;5051444;28;20267;-66
2023/08/23 00:30:02;;;;;;;9.03;8.20;;;;;;;28.81;52.10;99564.78;5051410;28;20200;-67
2023/08/23 00:32:28;;;;;;;9.63;8.60;;;;;;;28.77;51.40;99561.88;5051660;28;20232;-66
2023/08/23 00:34:56;;;;;;;8.70;8.10;;;;;;;28.71;51.94;99567.78;5051344;28;20200;-66
2023/08/23 00:37:23;;;;;;;9.10;8.33;;;;;;;28.69;51.62;99570.00;5050760;28;20300;-67
2023/08/23 00:39:50;;;;;;;9.03;8.23;;;;;;;28.66;51.72;99573.38;5050875;28;20228;-66
2023/08/23 00:42:16;;;;;;;10.23;8.73;;;;;;;28.60;52.58;99571.91;5051241;28;20189;-66
2023/08/23 00:44:43;;;;;;;8.73;8.03;;;;;;;28.59;52.49;99575.75;5051286;28;20754;-66
2023/08/23 00:47:10;;;;;;;8.97;8.20;;;;;;;28.54;52.81;99568.47;5049825;28;20672;-66
2023/08/23 00:49:36;;;;;;;8.73;8.20;;;;;;;28.53;52.69;99576.97;5051183;28;20242;-66
2023/08/23 00:52:05;;;;;;;9.20;8.27;;;;;;;28.53;52.62;99576.97;5051633;28;20630;-67
2023/08/23 00:54:32;;;;;;;8.70;8.13;;;;;;;28.54;52.53;99581.34;5051473;28;20193;-67
2023/08/23 00:57:01;;;;;;;8.97;8.50;;;;;;;28.57;53.03;99583.44;5050468;28;20270;-67
2023/08/23 00:59:30;;;;;;;9.50;8.30;;;;;;;28.51;53.23;99581.97;5051087;28;20560;-66
2023/08/23 01:01:57;;;;;;;8.63;7.93;;;;;;;28.47;52.50;99581.75;5051372;28;20314;-66
2023/08/23 01:04:23;;;;;;;10.30;9.43;;;;;;;28.44;53.04;99582.41;5051356;28;20205;-67
2023/08/23 01:06:57;;;;;;;9.87;8.20;;;;;;;28.43;52.97;99588.19;5052177;28;20254;-66
2023/08/23 01:09:36;;;;;;;8.87;8.37;;;;;;;28.41;53.48;99584.94;5055320;28;20197;-66
2023/08/23 01:12:12;;;;;;;10.67;9.00;;;;;;;28.39;53.51;99576.22;5055261;28;20192;-66
2023/08/23 01:14:46;;;;;;;10.30;8.67;;;;;;;28.37;53.88;99578.44;5054682;28;20717;-67
2023/08/23 01:17:16;;;;;;;9.67;8.37;;;;;;;28.34;54.35;99582.59;5054371;28;20263;-66
2023/08/23 01:19:43;;;;;;;9.97;9.03;;;;;;;28.29;53.94;99571.81;5055297;28;20262;-66
2023/08/23 01:22:13;;;;;;;10.43;9.20;;;;;;;28.29;54.41;99576.44;5054694;28;20212;-66
2023/08/23 01:24:41;;;;;;;10.50;8.83;;;;;;;28.28;54.46;99572.09;5054471;28;20251;-67
2023/08/23 01:27:08;;;;;;;11.00;8.50;;;;;;;28.27;54.18;99579.50;5054611;28;20768;-66
2023/08/23 01:29:35;;;;;;;9.73;8.93;;;;;;;28.25;54.04;99572.72;5054590;28;20266;-66
2023/08/23 01:32:15;;;;;;;11.73;9.23;;;;;;;28.15;54.11;99571.06;5053798;28;20675;-66
2023/08/23 01:34:49;;;;;;;10.07;9.27;;;;;;;28.01;54.01;99574.94;5054979;28;20255;-65
2023/08/23 01:37:18;;;;;;;10.47;9.40;;;;;;;27.87;54.14;99574.16;5054449;28;20184;-66
2023/08/23 01:39:46;;;;;;;10.97;9.37;;;;;;;27.75;54.33;99573.84;5054878;28;20274;-65
2023/08/23 01:42:13;;;;;;;9.93;9.33;;;;;;;27.65;54.14;99571.34;5053456;28;20649;-66
2023/08/23 01:44:42;;;;;;;10.23;9.43;;;;;;;27.56;55.06;99578.63;5054742;28;20242;-66
2023/08/23 01:47:09;;;;;;;10.43;9.53;;;;;;;27.57;55.13;99580.25;5054181;28;20192;-66
2023/08/23 01:49:36;;;;;;;9.97;9.10;;;;;;;27.60;54.96;99571.47;5054537;28;20193;-66
2023/08/23 01:52:03;;;;;;;9.27;8.50;;;;;;;27.62;55.03;99571.94;5053196;28;20220;-66
2023/08/23 01:54:29;;;;;;;9.83;9.20;;;;;;;27.63;54.99;99568.09;5054173;28;20679;-66
2023/08/23 01:56:57;;;;;;;11.93;9.87;;;;;;;27.45;55.20;99544.47;5054418;28;20189;-65
2023/08/23 01:59:24;;;;;;;14.53;9.90;;;;;;;27.62;55.31;99577.41;5062321;28;20250;-66
2023/08/23 02:01:51;;;;;;;10.07;9.10;;;;;;;27.62;55.47;99571.94;5057846;28;20776;-66
2023/08/23 02:04:19;;;;;;;11.67;9.20;;;;;;;27.63;55.20;99581.75;5053945;28;20679;-66
2023/08/23 02:06:46;;;;;;;10.30;9.50;;;;;;;27.66;55.35;99578.41;5053894;28;20628;-66
2023/08/23 02:09:12;;;;;;;10.30;9.53;;;;;;;27.64;55.14;99570.53;5054126;28;20259;-66
2023/08/23 02:11:39;;;;;;;9.70;8.90;;;;;;;27.70;55.00;99580.25;5053413;28;20197;-65
2023/08/23 02:14:07;;;;;;;10.37;9.20;;;;;;;27.75;55.10;99582.03;5053775;28;20196;-65
2023/08/23 02:16:34;;;;;;;9.67;8.90;;;;;;;27.75;55.03;99579.31;5053956;28;20256;-65
2023/08/23 02:19:00;;;;;;;10.53;9.63;;;;;;;27.77;55.04;99579.81;5053860;28;20249;-66
2023/08/23 02:21:27;;;;;;;10.53;9.53;;;;;;;27.77;55.35;99580.59;5053157;28;20229;-65
2023/08/23 02:23:54;;;;;;;11.53;10.63;;;;;;;27.75;56.13;99573.84;5053838;28;20196;-65
2023/08/23 02:26:20;;;;;;;10.53;9.67;;;;;;;27.57;56.81;99577.50;5053520;28;20192;-65
2023/08/23 02:28:47;;;;;;;13.07;10.53;;;;;;;27.41;57.54;99571.56;5053493;28;20255;-66
2023/08/23 02:31:15;;;;;;;10.60;9.97;;;;;;;27.31;58.09;99570.97;5053166;28;20200;-66
2023/08/23 02:33:42;;;;;;;11.23;9.90;;;;;;;27.33;58.13;99579.66;5053773;28;20489;-66
2023/08/23 02:36:08;;;;;;;11.77;10.83;;;;;;;27.31;58.01;99568.25;5053663;28;20325;-65
2023/08/23 02:38:35;;;;;;;10.73;10.07;;;;;;;27.29;58.17;99571.28;5053034;28;20196;-66
2023/08/23 02:41:02;;;;;;;11.00;10.23;;;;;;;27.33;58.16;99574.19;5053512;28;20228;-65
2023/08/23 02:43:29;;;;;;;10.87;9.90;;;;;;;27.36;57.75;99571.66;5053216;28;20199;-65
2023/08/23 02:45:56;;;;;;;11.50;10.40;;;;;;;27.39;57.64;99581.16;5053194;28;20267;-65
2023/08/23 02:48:24;;;;;;;12.27;10.33;;;;;;;27.40;57.99;99580.06;5053120;28;20189;-65
2023/08/23 02:50:51;;;;;;;11.37;10.40;;;;;;;27.40;58.25;99572.66;5052287;28;20228;-65
2023/08/23 02:53:17;;;;;;;10.97;10.00;;;;;;;27.41;58.15;99576.22;5053020;28;20258;-66
2023/08/23 02:55:44;;;;;;;11.00;10.10;;;;;;;27.43;57.81;99573.97;5052985;28;20254;-65
2023/08/23 02:58:11;;;;;;;11.37;10.20;;;;;;;27.45;57.38;99574.50;5052536;28;20200;-65
2023/08/23 03:00:37;;;;;;;11.30;10.40;;;;;;;27.47;57.71;99569.53;5053165;28;20262;-65
2023/08/23 03:03:04;;;;;;;11.83;10.43;;;;;;;27.50;57.95;99571.66;5053065;28;20193;-66
2023/08/23 03:05:33;;;;;;;11.13;10.03;;;;;;;27.51;57.60;99570.53;5053130;28;20188;-66
2023/08/23 03:07:59;;;;;;;10.77;9.70;;;;;;;27.47;57.77;99570.34;5052203;28;20192;-67
2023/08/23 03:10:26;;;;;;;10.60;9.93;;;;;;;27.52;57.96;99577.63;5052669;28;20733;-66
2023/08/23 03:12:53;;;;;;;10.87;10.17;;;;;;;27.50;57.76;99572.47;5052613;28;20196;-66
2023/08/23 03:15:20;;;;;;;11.43;10.30;;;;;;;27.48;57.84;99579.34;5052903;28;20193;-66
2023/08/23 03:17:47;;;;;;;10.17;9.17;;;;;;;27.50;57.61;99575.19;5051600;28;20279;-66
2023/08/23 03:20:13;;;;;;;18.70;9.53;;;;;;;27.52;57.34;99572.16;5052466;28;20197;-66
2023/08/23 03:22:41;;;;;;;11.07;9.97;;;;;;;27.50;57.65;99579.84;5052397;28;20218;-66
2023/08/23 03:25:08;;;;;;;11.27;10.30;;;;;;;27.49;57.92;99578.22;5052726;28;20189;-66
2023/08/23 03:27:35;;;;;;;10.40;9.37;;;;;;;27.41;58.15;99576.22;5052110;28;20250;-66
2023/08/23 03:30:02;;;;;;;10.73;9.50;;;;;;;27.36;58.49;99579.03;5051289;28;20255;-66
2023/08/23 03:32:28;;;;;;;11.20;10.30;;;;;;;27.12;58.68;99567.47;5052237;28;20196;-66
2023/08/23 03:34:55;;;;;;;15.23;10.33;;;;;;;27.04;59.17;99570.91;5052183;28;20189;-66
2023/08/23 03:37:22;;;;;;;10.50;9.83;;;;;;;27.04;59.07;99581.81;5051283;28;20656;-67
2023/08/23 03:39:50;;;;;;;11.43;10.20;;;;;;;27.02;59.61;99573.09;5052352;28;20647;-66
2023/08/23 03:42:16;;;;;;;10.23;9.37;;;;;;;27.10;59.02;99577.88;5051058;28;20271;-66
2023/08/23 03:44:43;;;;;;;10.60;9.70;;;;;;;27.16;58.85;99574.75;5052463;28;20246;-66
2023/08/23 03:47:10;;;;;;;10.60;9.77;;;;;;;27.20;58.71;99575.78;5052240;28;20246;-68
2023/08/23 03:49:37;;;;;;;10.83;10.23;;;;;;;27.30;58.50;99586.53;5052202;28;20195;-66
2023/08/23 03:52:03;;;;;;;10.37;9.67;;;;;;;27.24;59.48;99576.00;5050853;28;20315;-66
2023/08/23 03:54:30;;;;;;;12.40;11.07;;;;;;;27.30;58.81;99582.97;5051869;28;20192;-66
2023/08/23 03:56:58;;;;;;;12.00;10.80;;;;;;;27.29;59.35;99584.91;5051851;28;20215;-66
2023/08/23 03:59:25;;;;;;;12.53;11.40;;;;;;;27.21;59.29;99582.88;5051797;28;20577;-65
2023/08/23 04:01:51;;;;;;;21.40;10.80;;;;;;;27.15;59.51;99569.63;5050409;28;20710;-65
2023/08/23 04:04:19;;;;;;;11.87;10.80;;;;;;;27.08;59.80;99578.19;5051723;28;20278;-65
2023/08/23 04:06:45;;;;;;;12.13;11.20;;;;;;;27.00;60.00;99576.16;5051688;28;20232;-65
2023/08/23 04:09:13;;;;;;;11.87;10.03;;;;;;;27.06;60.14;99576.84;5051592;28;20663;-65
2023/08/23 04:11:40;;;;;;;10.93;10.03;;;;;;;27.33;59.32;99571.47;5051408;28;20207;-65
2023/08/23 04:14:08;;;;;;;10.10;9.17;;;;;;;27.62;58.13;99575.50;5051570;28;20200;-65
2023/08/23 04:16:34;;;;;;;9.97;9.37;;;;;;;27.96;57.11;99581.31;5051543;28;20193;-65
2023/08/23 04:19:01;;;;;;;12.20;11.07;;;;;;;28.26;56.37;99582.56;5051775;28;20242;-65
2023/08/23 04:21:28;;;;;;;10.77;9.77;;;;;;;28.65;54.79;99583.50;5050861;28;20246;-66
2023/08/23 04:23:54;;;;;;;14.43;10.80;;;;;;;29.02;54.57;99587.78;5051813;28;20204;-66
2023/08/23 04:26:21;;;;;;;11.03;10.07;;;;;;;29.38;52.44;99587.59;5051723;28;20196;-66
2023/08/23 04:28:48;;;;;;;19.17;10.33;;;;;;;29.81;52.35;99586.66;5051828;28;20199;-66
2023/08/23 04:31:16;;;;;;;17.73;10.13;;;;;;;30.14;50.30;99590.59;5052766;28;20211;-66
2023/08/23 04:33:43;;;;;;;12.20;10.87;;;;;;;30.34;48.53;99586.38;5059937;28;20197;-65
2023/08/23 04:36:10;;;;;;;12.97;10.53;;;;;;;30.25;48.67;99591.84;5061890;28;20597;-65
2023/08/23 04:38:37;;;;;;;16.00;10.87;;;;;;;30.43;47.74;99587.19;5059342;28;20280;-65
2023/08/23 04:41:04;;;;;;;11.07;10.10;;;;;;;30.49;47.86;99592.19;5064998;28;20274;-65
2023/08/23 04:43:31;;;;;;;11.93;9.33;;;;;;;30.66;47.08;99586.66;5066429;28;20196;-66
2023/08/23 04:45:59;;;;;;;12.57;11.47;;;;;;;31.10;45.80;99594.50;5064734;28;20246;-66
2023/08/23 04:48:27;;;;;;;10.93;9.80;;;;;;;31.38;45.06;99606.69;5066779;28;20187;-65
2023/08/23 04:50:55;;;;;;;18.13;12.30;;;;;;;31.82;43.43;99608.13;5063749;28;20308;-66
2023/08/23 04:53:22;;;;;;;15.10;11.90;;;;;;;32.04;42.53;99607.78;5062109;28;20189;-65
2023/08/23 04:55:49;;;;;;;11.83;10.70;;;;;;;32.13;42.79;99606.59;5055233;28;20197;-66
2023/08/23 04:58:16;;;;;;;12.63;11.57;;;;;;;32.35;42.07;99611.81;5055313;28;20277;-65
2023/08/23 05:00:43;;;;;;;14.00;10.80;;;;;;;32.61;41.08;99615.13;5054887;28;20279;-66
2023/08/23 05:03:10;;;;;;;14.50;10.80;;;;;;;32.98;40.10;99608.63;5055471;28;20220;-66
2023/08/23 05:05:38;;;;;;;14.63;11.70;;;;;;;33.45;38.77;99614.59;5055753;28;20582;-65
2023/08/23 05:08:05;;;;;;;10.83;9.90;;;;;;;33.58;38.57;99621.72;5054399;28;20276;-67
2023/08/23 05:10:32;;;;;;;11.40;10.33;;;;;;;33.68;38.22;99615.72;5053049;28;20784;-67
2023/08/23 05:13:00;;;;;;;11.85;10.73;;;;;;;33.81;37.85;99613.78;5053936;28;20188;-66
2023/08/23 05:15:27;;;;;;;15.40;9.60;;;;;;;34.03;37.49;99605.84;5054386;28;20262;-67
2023/08/23 05:17:54;;;;;;;12.68;9.85;;;;;;;34.43;36.80;99614.16;5054416;28;20274;-67
2023/08/23 05:20:21;;;;;;;10.80;9.80;;;;;;;34.73;36.29;99607.94;5054356;28;20246;-66
2023/08/23 05:22:49;;;;;;;11.43;10.27;;;;;;;34.86;35.94;99606.75;5053555;28;20282;-66
2023/08/23 05:25:16;;;;;;;11.43;10.27;;;;;;;34.94;35.39;99607.75;5053284;28;20262;-69
2023/08/23 05:27:42;;;;;;;12.10;10.73;;;;;;;35.25;35.03;99605.00;5053781;28;20199;-66
2023/08/23 05:30:10;;;;;;;10.20;9.30;;;;;;;35.43;34.36;99609.84;5051671;28;20197;-70
2023/08/23 05:32:36;;;;;;;15.32;10.23;;;;;;;35.45;35.07;99601.22;5052098;28;20258;-67
2023/08/23 05:35:04;;;;;;;10.90;9.57;;;;;;;35.64;34.75;99609.59;5032743;28;20274;-66
2023/08/23 05:37:30;;;;;;;14.35;9.60;;;;;;;35.60;34.94;99597.63;5032470;28;20204;-65
2023/08/23 05:39:58;;;;;;;10.73;9.32;;;;;;;35.65;34.68;99600.13;5033314;28;20263;-66
2023/08/23 05:42:25;;;;;;;10.85;9.50;;;;;;;35.58;34.94;99597.19;5032714;28;20283;-66
2023/08/23 05:44:52;;;;;;;16.60;10.00;;;;;;;35.63;34.62;99596.91;5051350;28;20644;-69
2023/08/23 05:47:18;;;;;;;21.50;9.68;;;;;;;35.81;34.00;99595.41;5052573;28;20192;-66
2023/08/23 05:49:45;;;;;;;13.30;9.13;;;;;;;35.77;33.76;99589.78;5052944;28;20656;-65
2023/08/23 05:52:12;;;;;;;15.48;10.15;;;;;;;35.79;33.94;99592.19;5051898;28;20286;-65
2023/08/23 05:54:38;;;;;;;10.52;8.88;;;;;;;35.69;34.07;99589.94;5052031;28;20197;-63
2023/08/23 05:57:06;;;;;;;12.90;9.05;;;;;;;35.69;34.69;99587.19;5060872;28;20192;-64
2023/08/23 05:59:34;;;;;;;10.45;9.05;;;;;;;35.62;34.87;99581.47;5066410;28;20192;-64
2023/08/23 06:02:00;;;;;;;14.15;9.75;;;;;;;35.68;34.76;99583.59;5059602;28;20216;-65
2023/08/23 06:04:28;;;;;;;9.40;8.40;;;;;;;35.82;34.88;99588.69;5063328;28;20729;-64
2023/08/23 06:06:55;;;;;;;15.07;8.50;;;;;;;35.98;34.33;99583.94;5062137;28;20263;-68
2023/08/23 06:09:21;;;;;;;12.60;8.73;;;;;;;36.05;33.94;99586.88;5061582;28;20253;-67
2023/08/23 06:11:48;;;;;;;9.23;8.32;;;;;;;35.87;34.32;99585.66;5061839;28;20645;-67
2023/08/23 06:14:23;;;;;;;10.75;8.20;;;;;;;35.77;33.70;99586.22;5063436;28;20192;-67
2023/08/23 06:16:50;;;;;;;8.57;7.90;;;;;;;35.61;34.41;99588.19;5061731;28;20176;-64
2023/08/23 06:19:17;;;;;;;10.77;8.00;;;;;;;35.81;33.12;99592.63;5061973;28;20193;-65
2023/08/23 06:21:44;;;;;;;9.63;8.43;;;;;;;35.65;33.85;99584.34;5049899;28;20200;-68
2023/08/23 06:24:11;;;;;;;11.63;7.72;;;;;;;35.55;34.24;99589.59;5050992;28;20201;-69
2023/08/23 06:26:38;;;;;;;9.43;8.27;;;;;;;35.73;33.42;99596.38;5050825;28;20197;-69
2023/08/23 06:31:41;;;;;;;16.63;7.78;;;;;;;36.15;33.49;99598.16;5063540;22;20237;-72
2023/08/23 06:34:08;;;;;;;12.90;8.32;;;;;;;36.31;32.67;99600.88;5013928;28;20228;-71
2023/08/23 06:36:34;;;;;;;9.55;8.25;;;;;;;36.33;32.91;99607.66;5014019;28;20201;-70
2023/08/23 06:39:02;;;;;;;10.75;8.45;;;;;;;36.01;32.91;99608.13;5013451;28;20269;-71
2023/08/23 06:41:29;;;;;;;8.48;7.90;;;;;;;35.79;33.40;99606.00;5013703;28;20272;-71
2023/08/23 06:44:00;;;;;;;9.10;8.25;;;;;;;36.00;32.87;99612.84;5013295;28;20280;-69
2023/08/23 06:46:27;;;;;;;9.23;8.27;;;;;;;36.01;32.75;99619.19;5012694;28;20222;-71
2023/08/23 06:48:55;;;;;;;9.40;8.85;;;;;;;36.30;32.90;99613.13;5013710;28;20558;-72
2023/08/23 06:51:22;;;;;;;8.80;8.10;;;;;;;36.32;32.63;99619.91;5012703;28;20193;-69
2023/08/23 06:53:51;;;;;;;8.93;8.25;;;;;;;36.37;32.83;99622.38;5015231;28;20275;-73
2023/08/23 06:56:18;;;;;;;8.43;7.75;;;;;;;36.50;32.63;99614.75;5024022;28;20185;-73
2023/08/23 06:58:44;;;;;;;11.93;8.30;;;;;;;36.43;31.83;99620.13;5022379;28;20260;-74
2023/08/23 07:01:14;;;;;;;31.90;10.52;;;;;;;36.57;31.64;99620.41;5019676;28;20245;-74
2023/08/23 07:03:40;;;;;;;8.63;8.02;;;;;;;36.57;31.97;99620.41;5022374;28;20622;-73
2023/08/23 07:06:08;;;;;;;9.55;8.82;;;;;;;36.80;31.80;99610.22;5020712;28;20255;-73
2023/08/23 07:08:35;;;;;;;8.55;7.93;;;;;;;37.06;30.74;99611.13;5023277;28;20190;-73
2023/08/23 07:11:02;;;;;;;9.07;8.43;;;;;;;37.00;31.03;99606.25;5021355;28;20198;-73
2023/08/23 07:13:28;;;;;;;9.32;8.43;;;;;;;37.04;31.63;99618.19;5018751;28;20194;-74
2023/08/23 07:15:55;;;;;;;22.63;9.05;;;;;;;37.11;31.80;99607.25;5023118;28;20705;-72
2023/08/23 07:18:22;;;;;;;8.50;7.80;;;;;;;37.16;31.68;99609.75;5021173;28;20267;-71
2023/08/23 07:20:48;;;;;;;9.63;8.65;;;;;;;37.10;31.10;99605.63;5020817;28;20247;-70
2023/08/23 07:23:16;;;;;;;8.50;7.72;;;;;;;37.06;31.19;99599.22;5019647;28;20214;-70
2023/08/23 07:25:44;;;;;;;9.13;8.52;;;;;;;37.14;31.21;99601.00;5021757;28;20625;-71
2023/08/23 07:28:11;;;;;;;9.65;8.20;;;;;;;37.41;30.18;99605.44;5019013;28;20198;-71
2023/08/23 07:30:38;;;;;;;9.57;8.18;;;;;;;37.52;30.58;99600.06;5019822;28;20639;-70
2023/08/23 07:33:05;;;;;;;10.10;8.45;;;;;;;37.70;30.15;99598.38;5022115;28;20202;-69
2023/08/23 07:35:32;;;;;;;8.52;7.88;;;;;;;37.77;30.20;99596.53;5021576;28;20194;-70
2023/08/23 07:37:58;;;;;;;9.38;8.50;;;;;;;37.85;30.55;99595.47;5019109;28;20252;-69
2023/08/23 07:40:26;;;;;;;11.13;9.00;;;;;;;37.81;30.04;99597.38;5019219;28;20194;-70
2023/08/23 07:42:53;;;;;;;9.27;8.25;;;;;;;37.89;30.01;99603.81;5018921;28;20221;-71
2023/08/23 07:45:20;;;;;;;9.18;8.32;;;;;;;37.95;30.13;99591.22;5020888;28;20256;-70
2023/08/23 07:47:47;;;;;;;9.18;8.13;;;;;;;38.07;29.72;99591.84;5021479;28;20213;-69
2023/08/23 07:50:14;;;;;;;11.95;8.00;;;;;;;38.19;29.03;99586.06;5022127;28;20198;-71
2023/08/23 07:52:41;;;;;;;9.45;7.38;;;;;;;38.34;29.61;99581.47;5017279;28;20558;-70
2023/08/23 07:55:08;;;;;;;11.23;8.05;;;;;;;38.39;28.95;99583.91;5022221;28;20205;-69
2023/08/23 07:57:36;;;;;;;8.77;8.07;;;;;;;38.50;29.46;99584.88;5019503;28;20221;-70
2023/08/23 08:00:03;;;;;;;8.88;8.27;;;;;;;38.58;29.22;99586.56;5016141;28;20198;-70
2023/08/23 08:02:31;;;;;;;9.63;8.48;;;;;;;38.63;28.85;99589.81;5021630;28;20283;-69
2023/08/23 08:04:57;;;;;;;8.98;8.25;;;;;;;38.72;28.85;99581.97;5019545;28;20243;-71
2023/08/23 08:07:24;;;;;;;9.45;8.40;;;;;;;38.61;29.00;99588.59;5019086;28;20190;-71
2023/08/23 08:09:50;;;;;;;8.90;8.27;;;;;;;38.51;28.37;99584.50;5015942;28;20657;-70
2023/08/23 08:12:17;;;;;;;11.65;7.70;;;;;;;38.46;28.88;99582.00;5009684;28;20677;-70
2023/08/23 08:14:45;;;;;;;10.60;8.55;;;;;;;38.04;29.59;99575.16;5014771;28;20641;-70
2023/08/23 08:17:12;;;;;;;13.38;8.60;;;;;;;38.21;29.54;99569.03;5011966;28;20202;-70
2023/08/23 08:19:38;;;;;;;10.40;8.63;;;;;;;38.43;28.81;99568.09;5012138;28;20201;-70
2023/08/23 08:22:05;;;;;;;8.10;7.70;;;;;;;38.60;29.08;99561.97;5010713;28;20190;-69
2023/08/23 08:24:32;;;;;;;8.52;7.85;;;;;;;38.50;28.57;99566.22;5010717;28;20181;-70
2023/08/23 08:26:59;;;;;;;8.02;7.25;;;;;;;38.67;27.53;99573.97;5011584;28;20295;-73
2023/08/23 08:29:25;;;;;;;10.20;6.97;;;;;;;38.50;27.42;99569.00;5012423;28;20193;-73
2023/08/23 08:31:53;;;;;;;7.53;6.32;;;;;;;38.45;27.41;99569.31;5023329;28;20221;-80
2023/08/23 08:34:20;;;;;;;8.43;7.70;;;;;;;38.19;27.90;99566.63;5019483;28;20248;-79
2023/08/23 08:36:47;;;;;;;8.98;7.30;;;;;;;38.19;28.12;99569.41;5012124;28;20337;-75
2023/08/23 08:39:14;;;;;;;8.35;7.57;;;;;;;38.18;27.22;99572.53;5019470;28;20251;-78
2023/08/23 08:41:44;;;;;;;11.30;6.75;;;;;;;37.92;27.31;99564.25;5022239;28;20617;-79
2023/08/23 08:44:12;;;;;;;7.22;6.40;;;;;;;38.06;26.74;99559.72;5012054;28;20237;-80
2023/08/23 08:46:40;;;;;;;7.30;6.57;;;;;;;38.26;27.57;99552.84;5021564;28;20240;-76
2023/08/23 08:49:08;;;;;;;11.25;6.45;;;;;;;38.42;27.50;99553.44;5016774;28;20555;-77
2023/08/23 08:51:38;;;;;;;7.53;6.85;;;;;;;38.70;27.25;99550.97;5020235;28;20189;-77
2023/08/23 08:54:07;;;;;;;8.63;7.43;;;;;;;38.92;26.86;99552.03;5018399;28;20268;-78
2023/08/23 08:56:34;;;;;;;7.68;6.97;;;;;;;38.85;26.99;99540.78;5012240;28;20205;-81
2023/08/23 08:59:02;;;;;;;8.15;7.43;;;;;;;38.93;26.96;99540.53;5012027;28;20189;-77
2023/08/23 09:01:32;;;;;;;6.65;6.15;;;;;;;38.70;25.99;99545.41;5011868;28;20197;-76
2023/08/23 09:03:59;;;;;;;6.03;5.60;;;;;;;38.50;26.07;99543.22;5011554;28;20237;-76
2023/08/23 09:06:28;;;;;;;7.13;5.97;;;;;;;38.71;26.25;99530.38;5011222;28;20261;-76
2023/08/23 09:08:56;;;;;;;10.05;6.47;;;;;;;38.78;26.32;99529.63;5011403;28;20735;-74
2023/08/23 09:11:22;;;;;;;7.50;6.88;;;;;;;38.81;25.66;99537.19;5011450;28;20198;-68
2023/08/23 09:13:49;;;;;;;7.25;5.97;;;;;;;38.97;25.42;99527.47;5008960;28;20256;-68
2023/08/23 09:16:16;;;;;;;6.28;5.95;;;;;;;39.12;25.08;99522.81;5009667;28;20685;-68
2023/08/23 09:18:44;;;;;;;6.38;5.65;;;;;;;38.91;25.00;99528.19;5010296;28;20229;-61
2023/08/23 09:21:12;;;;;;;6.85;5.55;;;;;;;39.10;25.36;99525.97;5010369;28;20232;-61
2023/08/23 09:23:40;;;;;;;8.02;6.25;;;;;;;39.25;25.08;99511.03;5010225;28;20775;-60
2023/08/23 09:26:07;;;;;;;7.25;5.95;;;;;;;39.44;24.83;99521.91;5009807;28;20195;-60
2023/08/23 09:28:34;;;;;;;6.93;5.85;;;;;;;39.11;25.70;99516.44;5012025;28;20256;-61
2023/08/23 09:31:01;;;;;;;6.82;6.22;;;;;;;39.14;25.29;99509.31;5013612;28;20226;-61
2023/08/23 09:33:28;;;;;;;5.50;5.05;;;;;;;39.36;25.17;99505.56;5013328;28;20194;-64
2023/08/23 09:35:58;;;;;;;8.90;5.78;;;;;;;39.59;24.57;99504.13;5014043;28;20268;-59
2023/08/23 09:38:25;;;;;;;7.65;6.50;;;;;;;39.14;25.34;99499.00;5012912;28;20225;-64
2023/08/23 09:40:53;;;;;;;7.57;6.22;;;;;;;39.36;25.21;99500.78;5010735;28;20256;-61
2023/08/23 09:43:22;;;;;;;6.55;6.13;;;;;;;39.55;24.38;99496.94;5013031;28;20273;-60
2023/08/23 09:45:49;;;;;;;6.60;6.07;;;;;;;39.73;24.51;99500.63;5019030;28;20249;-61
2023/08/23 09:48:17;;;;;;;6.13;5.43;;;;;;;39.26;25.07;99503.47;5014320;28;20290;-67
2023/08/23 09:50:45;;;;;;;8.38;5.95;;;;;;;39.16;25.29;99496.66;5017320;28;20631;-66
2023/08/23 09:53:18;;;;;;;7.10;6.40;;;;;;;39.51;25.36;99499.69;5021280;28;20573;-65
2023/08/23 09:55:46;;;;;;;5.50;5.10;;;;;;;39.48;24.06;99503.25;5015297;28;20187;-62
2023/08/23 09:58:14;;;;;;;6.03;5.43;;;;;;;39.55;24.04;99492.19;5021469;28;20194;-66
2023/08/23 10:00:41;;;;;;;5.90;5.35;;;;;;;39.59;24.10;99493.00;5019840;28;20186;-66
2023/08/23 10:03:09;;;;;;;7.47;5.55;;;;;;;39.47;24.31;99484.19;5020105;28;20720;-67
2023/08/23 10:05:36;;;;;;;6.85;6.15;;;;;;;39.17;23.88;99469.66;5019591;28;20185;-64
2023/08/23 10:08:03;;;;;;;7.82;5.45;;;;;;;39.29;24.34;99478.47;5014900;28;20300;-65
2023/08/23 10:10:31;;;;;;;6.30;5.70;;;;;;;39.38;24.34;99475.38;5018762;28;20193;-62
2023/08/23 10:13:04;;;;;;;7.47;5.85;;;;;;;39.41;24.34;99475.41;5016928;28;20189;-61
2023/08/23 10:15:33;;;;;;;6.07;5.57;;;;;;;39.46;24.70;99471.44;5012085;28;20244;-64
2023/08/23 10:18:02;;;;;;;5.72;5.43;;;;;;;39.21;24.67;99468.50;5014114;28;20193;-62
2023/08/23 10:20:29;;;;;;;5.70;5.25;;;;;;;39.41;23.25;99474.59;5020618;28;20978;-63
2023/08/23 10:22:56;;;;;;;4.88;4.55;;;;;;;39.55;22.71;99475.50;5016360;28;20289;-63
2023/08/23 10:25:23;;;;;;;5.88;5.38;;;;;;;39.65;22.53;99469.19;5021531;28;20263;-62
2023/08/23 10:27:53;;;;;;;10.80;5.07;;;;;;;39.80;22.67;99470.88;5022555;28;20194;-64
2023/08/23 10:30:24;;;;;;;5.57;5.10;;;;;;;39.94;22.53;99478.50;5021930;28;20193;-62
2023/08/23 10:36:24;;;;;;;5.22;4.93;;;;;;;39.78;21.67;99464.91;5006618;28;20224;-66
2023/08/23 10:38:51;;;;;;;5.53;4.97;;;;;;;39.57;22.48;99467.56;5027523;28;20221;-63
2023/08/23 10:41:19;;;;;;;9.43;5.43;;;;;;;39.73;22.20;99458.91;5016833;28;20213;-62
2023/08/23 10:43:47;;;;;;;5.57;5.18;;;;;;;39.53;22.76;99463.97;5029061;28;20232;-64
2023/08/23 10:46:18;;;;;;;5.75;5.10;;;;;;;39.01;23.50;99450.47;5010587;28;20194;-68
2023/08/23 10:48:45;;;;;;;5.30;5.05;;;;;;;38.84;23.75;99451.09;5007075;28;20373;-66
2023/08/23 10:51:12;;;;;;;7.43;5.85;;;;;;;39.09;23.64;99446.56;5009932;28;20190;-65
2023/08/23 10:53:40;;;;;;;5.78;5.28;;;;;;;39.06;23.47;99441.00;5010736;28;20194;-66
2023/08/23 10:56:09;;;;;;;6.28;5.80;;;;;;;39.06;23.67;99449.34;5009741;28;20198;-66
2023/08/23 10:58:37;;;;;;;8.60;5.93;;;;;;;38.76;23.59;99435.56;5011330;28;20194;-64
2023/08/23 11:01:04;;;;;;;5.88;5.57;;;;;;;38.87;23.95;99439.19;5010410;28;20665;-64
2023/08/23 11:03:31;;;;;;;6.90;5.32;;;;;;;39.08;23.24;99438.59;5012108;28;20273;-65
2023/08/23 11:05:58;;;;;;;5.55;5.25;;;;;;;39.15;23.39;99431.09;5013058;28;20202;-65
2023/08/23 11:08:25;;;;;;;6.28;5.63;;;;;;;39.23;22.78;99423.63;5011681;28;20194;-64
2023/08/23 11:10:53;;;;;;;6.10;5.53;;;;;;;39.34;22.94;99424.50;5013103;28;20212;-64
2023/08/23 11:13:20;;;;;;;9.30;5.88;;;;;;;39.32;22.79;99427.63;5009998;28;20618;-65
2023/08/23 11:15:46;;;;;;;6.25;5.13;;;;;;;39.45;22.88;99420.63;5004985;28;20273;-63
2023/08/23 11:18:14;;;;;;;6.30;5.20;;;;;;;39.51;23.03;99418.25;4991542;28;20202;-64
2023/08/23 11:20:41;;;;;;;5.53;5.13;;;;;;;39.48;22.59;99414.25;4992271;28;20194;-64
2023/08/23 11:23:07;;;;;;;8.57;4.95;;;;;;;39.49;22.36;99407.53;5004090;28;20256;-65
2023/08/23 11:25:35;;;;;;;5.72;5.43;;;;;;;39.29;22.68;99400.63;4990902;28;20245;-64
2023/08/23 11:28:05;;;;;;;8.45;5.82;;;;;;;39.06;22.83;99407.63;4992347;28;20197;-66
2023/08/23 11:30:31;;;;;;;5.85;5.45;;;;;;;38.87;22.99;99394.75;4990307;28;20233;-62
2023/08/23 11:32:58;;;;;;;6.13;5.63;;;;;;;38.89;23.03;99397.94;4999868;28;20589;-65